Time;durP1;ratioP1;P1;durP2;ratioP2;P2;SDS_P1;SDS_P2;PMS_P1;PMS_P2;Temp;Humidity;BMP_temperature;BMP_pressure;BME280_temperature;BME280_humidity;BME280_pressure;Samples;Min_cycle;Max_cycle;Signal;HPM_P1;HPM_P2
2021/08/29 00:00:55;;;;;;;;;;;;;;;22.46;59.62;101295.94;5099600;28;19959;-66
2021/08/29 00:03:26;;;;;;;;;;;;;;;22.46;59.73;101293.25;5102399;27;20510;-65
2021/08/29 00:05:54;;;;;;;;;;;;;;;22.46;59.83;101295.94;5106323;28;19928;-66
2021/08/29 00:08:22;;;;;;;;;;;;;;;22.46;59.64;101294.09;5109800;28;19924;-65
2021/08/29 00:10:50;;;;;;;;;;;;;;;22.46;59.96;101296.78;5101313;28;19932;-66
2021/08/29 00:13:18;;;;;;;;;;;;;;;22.47;59.00;101289.56;5103657;28;19927;-66
2021/08/29 00:15:46;;;;;;;;;;;;;;;22.46;59.53;101294.09;5093812;28;19927;-66
2021/08/29 00:18:14;;;;;;;;;;;;;;;22.47;59.24;101303.03;5104569;28;20334;-66
2021/08/29 00:20:44;;;;;;;;;;;;;;;22.47;58.71;101297.63;5107965;28;19923;-66
2021/08/29 00:23:12;;;;;;;;;;;;;;;22.47;59.28;101303.91;5106176;28;19981;-66
2021/08/29 00:25:40;;;;;;;;;;;;;;;22.47;59.20;101297.63;5101906;28;19949;-65
2021/08/29 00:28:08;;;;;;;;;;;;;;;22.47;59.20;101294.94;5099987;27;20135;-66
2021/08/29 00:30:36;;;;;;;;;;;;;;;22.47;59.49;101313.81;5101930;28;19932;-66
2021/08/29 00:33:05;;;;;;;;;;;;;;;22.46;59.32;101307.56;5100619;28;19936;-66
2021/08/29 00:35:33;;;;;;;;;;;;;;;22.47;59.44;101311.13;5101718;28;19932;-66
2021/08/29 00:38:03;;;;;;;;;;;;;;;22.46;59.26;101310.28;5104968;28;19964;-66
2021/08/29 00:40:31;;;;;;;;;;;;;;;22.47;59.56;101305.72;5101516;28;19931;-66
2021/08/29 00:43:00;;;;;;;;;;;;;;;22.47;58.98;101305.72;5100840;28;20026;-66
2021/08/29 00:45:28;;;;;;;;;;;;;;;22.47;59.22;101311.13;5096849;28;19951;-66
2021/08/29 00:47:56;;;;;;;;;;;;;;;22.47;58.93;101312.00;5103334;28;19931;-66
2021/08/29 00:50:25;;;;;;;;;;;;;;;22.47;59.02;101303.91;5103282;28;19999;-66
2021/08/29 00:52:53;;;;;;;;;;;;;;;22.48;59.13;101313.72;5138586;27;19934;-66
2021/08/29 00:55:24;;;;;;;;;;;;;;;22.47;58.90;101306.59;5099804;28;19924;-66
2021/08/29 00:57:54;;;;;;;;;;;;;;;22.48;59.24;101311.03;5095555;28;19977;-66
2021/08/29 01:00:22;;;;;;;;;;;;;;;22.47;58.99;101309.31;5134156;27;20379;-66
2021/08/29 01:02:55;;;;;;;;;;;;;;;22.47;58.85;101303.03;5104258;28;19938;-66
2021/08/29 01:05:41;;;;;;;;;;;;;;;22.47;59.07;101306.59;5101869;28;20029;-66
2021/08/29 01:08:30;;;;;;;;;;;;;;;22.46;58.93;101299.50;5109637;28;19930;-66
2021/08/29 01:11:02;;;;;;;;;;;;;;;22.46;58.50;101304.03;5102459;28;19932;-66
2021/08/29 01:13:33;;;;;;;;;;;;;;;22.46;58.87;101302.19;5099838;28;19924;-67
2021/08/29 01:16:04;;;;;;;;;;;;;;;22.46;58.35;101299.50;5098970;28;20635;-66
2021/08/29 01:18:33;;;;;;;;;;;;;;;22.47;58.85;101297.63;5102288;28;19942;-67
2021/08/29 01:21:04;;;;;;;;;;;;;;;22.47;59.15;101290.44;5105019;28;20295;-66
2021/08/29 01:23:34;;;;;;;;;;;;;;;22.47;59.01;101292.25;5138304;27;20113;-67
2021/08/29 01:26:10;;;;;;;;;;;;;;;22.48;58.98;101302.06;5091820;28;19932;-67
2021/08/29 01:28:51;;;;;;;;;;;;;;;22.48;58.79;101304.75;5102116;28;19930;-67
2021/08/29 01:31:20;;;;;;;;;;;;;;;22.48;58.93;101302.06;5102736;28;19928;-66
2021/08/29 01:33:49;;;;;;;;;;;;;;;22.49;59.15;101307.34;5100115;28;19947;-66
2021/08/29 01:36:17;;;;;;;;;;;;;;;22.49;58.98;101301.97;5101128;28;19928;-66
2021/08/29 01:38:46;;;;;;;;;;;;;;;22.49;58.63;101315.44;5100347;28;19951;-66
2021/08/29 01:41:16;;;;;;;;;;;;;;;22.48;58.06;101315.53;5096901;28;19923;-66
2021/08/29 01:43:45;;;;;;;;;;;;;;;22.48;58.64;101318.25;5101867;28;19985;-65
2021/08/29 01:46:16;;;;;;;;;;;;;;;22.48;58.60;101323.63;5100804;28;19924;-65
2021/08/29 01:49:02;;;;;;;;;;;;;;;22.47;57.94;101325.47;5100175;28;19959;-66
2021/08/29 01:51:31;;;;;;;;;;;;;;;22.48;58.50;101323.63;5103295;28;19931;-67
2021/08/29 01:54:11;;;;;;;;;;;;;;;22.48;58.21;101332.59;5101458;28;20019;-66
2021/08/29 01:56:59;;;;;;;;;;;;;;;22.48;59.06;101337.13;5104127;28;19932;-67
2021/08/29 01:59:28;;;;;;;;;;;;;;;22.49;58.79;101325.38;5105467;28;20488;-66
2021/08/29 02:01:58;;;;;;;;;;;;;;;22.49;58.70;101334.31;5107433;28;19932;-67
2021/08/29 02:04:32;;;;;;;;;;;;;;;22.48;58.27;101335.31;5104559;28;20346;-66
2021/08/29 02:07:06;;;;;;;;;;;;;;;22.47;57.97;101329.97;5133782;27;19946;-66
2021/08/29 02:09:35;;;;;;;;;;;;;;;22.47;58.11;101336.25;5137218;27;19977;-66
2021/08/29 02:12:04;;;;;;;;;;;;;;;22.49;58.28;101328.06;5107618;28;19985;-66
2021/08/29 02:14:40;;;;;;;;;;;;;;;22.49;58.46;101341.53;5106866;28;19923;-66
2021/08/29 02:17:12;;;;;;;;;;;;;;;22.49;58.28;101342.38;5106891;28;19927;-66
2021/08/29 02:19:42;;;;;;;;;;;;;;;22.50;58.48;101340.59;5138152;27;20392;-66
2021/08/29 02:22:11;;;;;;;;;;;;;;;22.50;58.50;101345.97;5103174;27;20181;-66
2021/08/29 02:24:42;;;;;;;;;;;;;;;22.49;58.60;101345.09;5109084;28;19931;-66
2021/08/29 02:27:15;;;;;;;;;;;;;;;22.50;58.54;101349.53;5126975;27;20637;-66
2021/08/29 02:29:44;;;;;;;;;;;;;;;22.48;58.24;101340.69;5107471;28;19927;-66
2021/08/29 02:32:17;;;;;;;;;;;;;;;22.48;58.13;101335.31;5108103;28;19969;-67
2021/08/29 02:34:48;;;;;;;;;;;;;;;22.49;58.03;101334.31;5100289;28;19932;-66
2021/08/29 02:37:22;;;;;;;;;;;;;;;22.48;57.63;101338.00;5105260;28;19936;-66
2021/08/29 02:39:59;;;;;;;;;;;;;;;22.50;58.14;101343.28;5138871;27;19984;-66
2021/08/29 02:42:30;;;;;;;;;;;;;;;22.50;58.32;101351.38;5106156;28;19944;-66
2021/08/29 02:45:06;;;;;;;;;;;;;;;22.50;58.16;101354.06;5108664;28;20344;-66
2021/08/29 02:47:37;;;;;;;;;;;;;;;22.50;58.82;101354.91;5103105;28;19931;-66
2021/08/29 02:50:05;;;;;;;;;;;;;;;22.50;58.40;101352.22;5098352;28;19976;-65
2021/08/29 02:52:37;;;;;;;;;;;;;;;22.51;58.54;101355.75;5140299;27;19923;-65
2021/08/29 02:55:07;;;;;;;;;;;;;;;22.50;57.77;101362.16;5143452;27;19950;-66
2021/08/29 02:57:36;;;;;;;;;;;;;;;22.50;58.14;101357.59;5106173;28;19928;-66
2021/08/29 03:00:37;;;;;;;;;;;;;;;22.49;57.83;101353.19;5078617;28;19932;-66
2021/08/29 03:03:16;;;;;;;;;;;;;;;22.50;58.16;101354.06;5119643;27;20312;-66
2021/08/29 03:05:45;;;;;;;;;;;;;;;22.49;57.99;101361.25;5135389;27;19978;-66
2021/08/29 03:08:14;;;;;;;;;;;;;;;22.50;57.83;101357.59;5107202;28;19959;-66
2021/08/29 03:10:42;;;;;;;;;;;;;;;22.51;58.01;101362.03;5107421;28;19924;-66
2021/08/29 03:13:10;;;;;;;;;;;;;;;22.50;57.88;101359.44;5105551;28;20148;-66
2021/08/29 03:15:46;;;;;;;;;;;;;;;22.51;58.33;101361.16;5102814;28;20230;-66
2021/08/29 03:18:36;;;;;;;;;;;;;;;22.50;57.96;101359.44;5100344;28;20021;-66
2021/08/29 03:21:24;;;;;;;;;;;;;;;22.49;57.52;101358.56;5107106;28;19931;-66
2021/08/29 03:23:52;;;;;;;;;;;;;;;22.50;57.84;101356.75;5103386;28;19931;-66
2021/08/29 03:26:20;;;;;;;;;;;;;;;22.49;57.84;101358.56;5109634;28;19974;-66
2021/08/29 03:28:49;;;;;;;;;;;;;;;22.49;57.42;101363.09;5106635;28;19928;-67
2021/08/29 03:31:17;;;;;;;;;;;;;;;22.50;57.68;101367.53;5101246;28;19931;-66
2021/08/29 03:33:48;;;;;;;;;;;;;;;22.50;57.81;101370.22;5097111;28;19958;-65
2021/08/29 03:36:19;;;;;;;;;;;;;;;22.50;57.81;101370.22;5110164;28;19971;-65
2021/08/29 03:38:48;;;;;;;;;;;;;;;22.50;57.93;101373.78;5108208;28;19931;-66
2021/08/29 03:41:17;;;;;;;;;;;;;;;22.49;58.02;101372.03;5106569;28;20347;-65
2021/08/29 03:43:47;;;;;;;;;;;;;;;22.49;57.96;101381.97;5099111;28;19932;-65
2021/08/29 03:46:16;;;;;;;;;;;;;;;22.49;57.75;101372.03;5099165;28;20003;-66
2021/08/29 03:48:45;;;;;;;;;;;;;;;22.49;58.05;101376.59;5105048;28;20022;-66
2021/08/29 03:51:19;;;;;;;;;;;;;;;22.50;58.14;101378.31;5108078;28;19932;-66
2021/08/29 03:53:49;;;;;;;;;;;;;;;22.49;57.50;101373.88;5106307;28;19927;-65
2021/08/29 03:56:17;;;;;;;;;;;;;;;22.49;57.52;101382.81;5102417;28;19998;-66
2021/08/29 03:58:46;;;;;;;;;;;;;;;22.50;57.54;101384.56;5099546;28;19932;-65
2021/08/29 04:01:14;;;;;;;;;;;;;;;22.50;57.37;101372.94;5101164;28;20623;-65
2021/08/29 04:03:43;;;;;;;;;;;;;;;22.51;57.72;101380.91;5120155;27;19934;-65
2021/08/29 04:06:21;;;;;;;;;;;;;;;22.52;57.64;101373.66;5108751;28;19980;-66
2021/08/29 04:08:50;;;;;;;;;;;;;;;22.51;57.68;101375.50;5102730;28;20022;-67
2021/08/29 04:11:22;;;;;;;;;;;;;;;22.51;57.84;101371.94;5108257;28;19927;-66
2021/08/29 04:13:51;;;;;;;;;;;;;;;22.51;57.63;101375.50;5094842;28;19924;-66
2021/08/29 04:16:28;;;;;;;;;;;;;;;22.51;57.99;101378.22;5103409;28;19947;-66
2021/08/29 04:19:04;;;;;;;;;;;;;;;22.52;57.49;101374.56;5100033;28;20054;-66
2021/08/29 04:21:37;;;;;;;;;;;;;;;22.51;57.32;101383.59;5107213;28;19928;-66
2021/08/29 04:24:06;;;;;;;;;;;;;;;22.53;57.08;101372.72;5105230;28;19975;-66
2021/08/29 04:26:44;;;;;;;;;;;;;;;22.52;57.28;101385.34;5100746;28;20631;-66
2021/08/29 04:29:13;;;;;;;;;;;;;;;22.52;56.94;101385.34;5096224;28;19924;-66
2021/08/29 04:31:44;;;;;;;;;;;;;;;22.52;57.35;101388.03;5102813;28;20953;-66
2021/08/29 04:34:13;;;;;;;;;;;;;;;22.52;57.15;101382.63;5106317;28;19932;-66
2021/08/29 04:36:56;;;;;;;;;;;;;;;22.52;57.34;101388.03;5105537;28;19930;-66
2021/08/29 04:39:36;;;;;;;;;;;;;;;22.53;57.74;101386.19;5128657;27;19974;-66
2021/08/29 04:42:04;;;;;;;;;;;;;;;22.52;56.92;101390.72;5096876;28;19932;-66
2021/08/29 04:44:32;;;;;;;;;;;;;;;22.53;57.43;101384.34;5100369;28;19932;-66
2021/08/29 04:47:01;;;;;;;;;;;;;;;22.54;57.39;101394.16;5100079;28;19959;-65
2021/08/29 04:49:30;;;;;;;;;;;;;;;22.53;56.95;101391.56;5131489;27;20217;-66
2021/08/29 04:51:59;;;;;;;;;;;;;;;22.52;56.95;101398.81;5106687;28;19931;-65
2021/08/29 04:54:28;;;;;;;;;;;;;;;22.54;57.13;101398.72;5101456;28;19923;-66
2021/08/29 04:56:57;;;;;;;;;;;;;;;22.55;57.02;101398.59;5137205;27;19992;-66
2021/08/29 04:59:25;;;;;;;;;;;;;;;22.56;57.33;101399.44;5099788;28;19932;-66
2021/08/29 05:01:54;;;;;;;;;;;;;;;22.56;57.42;101404.84;5104443;28;20256;-65
2021/08/29 05:04:23;;;;;;;;;;;;;;;22.58;57.05;101397.53;5104714;28;20336;-66
2021/08/29 05:06:52;;;;;;;;;;;;;;;22.58;56.69;101402.06;5140788;27;19931;-65
2021/08/29 05:09:24;;;;;;;;;;;;;;;22.57;57.24;101403.88;5099853;28;20979;-65
2021/08/29 05:11:52;;;;;;;;;;;;;;;22.57;56.81;101400.34;5100501;28;19928;-65
2021/08/29 05:14:21;;;;;;;;;;;;;;;22.56;57.01;101404.84;5106561;28;20489;-65
2021/08/29 05:16:49;;;;;;;;;;;;;;;22.57;56.92;101417.34;5100710;28;19939;-65
2021/08/29 05:19:19;;;;;;;;;;;;;;;22.58;57.20;101420.94;5100829;28;19962;-65
2021/08/29 05:21:50;;;;;;;;;;;;;;;22.59;57.36;101428.03;5099790;28;19976;-65
2021/08/29 05:24:25;;;;;;;;;;;;;;;22.60;57.36;101436.03;5100461;28;19950;-66
2021/08/29 05:26:55;;;;;;;;;;;;;;;22.61;57.33;101431.50;5103905;27;20006;-66
2021/08/29 05:29:24;;;;;;;;;;;;;;;22.61;56.96;101434.19;5092263;28;19928;-66
2021/08/29 05:31:54;;;;;;;;;;;;;;;22.62;57.05;101438.63;5105166;28;19992;-66
2021/08/29 05:34:33;;;;;;;;;;;;;;;22.61;56.86;101445.84;5103418;28;19932;-66
2021/08/29 05:37:02;;;;;;;;;;;;;;;22.62;56.75;101450.25;5098597;28;20020;-66
2021/08/29 05:39:44;;;;;;;;;;;;;;;22.63;56.67;101454.69;5094578;28;20436;-66
2021/08/29 05:42:12;;;;;;;;;;;;;;;22.63;56.66;101445.75;5100307;28;19934;-66
2021/08/29 05:44:47;;;;;;;;;;;;;;;22.65;56.76;101441.97;5104999;28;19931;-66
2021/08/29 05:47:15;;;;;;;;;;;;;;;22.65;56.80;101444.66;5108994;27;19950;-65
2021/08/29 05:49:43;;;;;;;;;;;;;;;22.66;56.59;101440.16;5093432;28;19970;-65
2021/08/29 05:52:11;;;;;;;;;;;;;;;22.68;56.71;101444.47;5091106;28;19931;-66
2021/08/29 05:54:40;;;;;;;;;;;;;;;22.61;55.96;101426.97;5094101;28;19928;-65
2021/08/29 05:57:09;;;;;;;;;;;;;;;22.55;54.53;101438.19;5093860;28;19962;-65
2021/08/29 05:59:37;;;;;;;;;;;;;;;22.50;54.39;101435.78;5093841;28;19961;-66
2021/08/29 06:02:05;;;;;;;;;;;;;;;22.50;54.71;101445.72;5094332;28;19953;-65
2021/08/29 06:04:34;;;;;;;;;;;;;;;22.50;55.18;101443.00;5092624;28;20405;-66
2021/08/29 06:07:10;;;;;;;;;;;;;;;22.48;54.70;101437.72;5090137;28;19928;-66
2021/08/29 06:09:41;;;;;;;;;;;;;;;22.48;54.72;101437.72;5095350;28;20094;-66
2021/08/29 06:12:11;;;;;;;;;;;;;;;22.47;55.12;101438.69;5090704;28;19939;-66
2021/08/29 06:14:39;;;;;;;;;;;;;;;22.46;54.98;101439.66;5097369;28;19935;-66
2021/08/29 06:17:07;;;;;;;;;;;;;;;22.41;55.10;101440.94;5095103;28;19932;-65
2021/08/29 06:19:35;;;;;;;;;;;;;;;22.47;55.18;101446.78;5093553;28;20126;-65
2021/08/29 06:22:04;;;;;;;;;;;;;;;22.45;55.02;101443.31;5093324;28;20482;-65
2021/08/29 06:24:39;;;;;;;;;;;;;;;22.46;54.79;101444.19;5096074;28;19923;-70
2021/08/29 06:27:37;;;;;;;;;;;;;;;22.48;54.27;101455.72;5057604;28;20000;-67
2021/08/29 06:30:08;;;;;;;;;;;;;;;22.49;55.74;101444.81;5093392;28;19964;-64
2021/08/29 06:32:57;;;;;;;;;;;;;;;19.50;62.98;101453.66;5084002;28;19959;-66
2021/08/29 06:35:26;;;;;;;;;;;;;;;19.10;62.81;101447.72;5089545;28;19928;-61
2021/08/29 06:38:02;;;;;;;;;;;;;;;19.34;62.79;101453.56;5094774;28;19932;-61
2021/08/29 06:40:30;;;;;;;;;;;;;;;18.83;62.01;101455.31;5126995;27;19938;-62
2021/08/29 06:42:59;;;;;;;;;;;;;;;19.42;62.54;101455.84;5094725;28;19999;-62
2021/08/29 06:45:46;;;;;;;;;;;;;;;19.52;58.58;101449.06;5097517;28;19950;-61
2021/08/29 06:48:33;;;;;;;;;;;;;;;19.91;54.87;101449.69;5097683;27;20328;-75
2021/08/29 06:51:19;;;;;;;;;;;;;;;20.16;54.10;101459.91;5107884;28;19987;-69
2021/08/29 06:54:05;;;;;;;;;;;;;;;20.17;53.20;101453.59;5111181;28;19953;-72
2021/08/29 06:56:52;;;;;;;;;;;;;;;20.11;51.63;101458.44;5099767;28;19930;-70
2021/08/29 06:59:29;;;;;;;;;;;;;;;20.12;51.24;101465.53;5129856;27;19996;-70
2021/08/29 07:01:58;;;;;;;;;;;;;;;20.00;51.68;101473.34;5092473;28;20178;-69
2021/08/29 07:04:28;;;;;;;;;;;;;;;20.03;49.97;101465.09;5086635;28;19978;-72
2021/08/29 07:07:01;;;;;;;;;;;;;;;19.92;50.28;101463.97;5097677;28;19962;-71
2021/08/29 07:09:38;;;;;;;;;;;;;;;19.81;50.25;101468.09;5090174;28;20101;-69
2021/08/29 07:12:07;;;;;;;;;;;;;;;19.71;55.14;101473.09;5114125;27;19954;-70
2021/08/29 07:14:49;;;;;;;;;;;;;;;19.53;58.68;101469.56;5106427;28;19939;-71
2021/08/29 07:17:18;;;;;;;;;;;;;;;19.46;54.82;101476.19;5091842;28;19928;-68
2021/08/29 07:19:47;;;;;;;;;;;;;;;19.66;53.47;101477.84;5100139;28;20043;-77
2021/08/29 07:22:34;;;;;;;;;;;;;;;19.74;52.18;101480.97;5106994;28;19957;-69
2021/08/29 07:25:20;;;;;;;;;;;;;;;19.67;51.54;101481.38;5099997;28;19930;-70
2021/08/29 07:28:07;;;;;;;;;;;;;;;19.71;51.25;101480.25;5097346;28;19934;-70
2021/08/29 07:31:09;;;;;;;;;;;;;;;19.62;50.44;101476.28;5072874;28;19928;-71
2021/08/29 07:33:37;;;;;;;;;;;;;;;19.63;51.26;101483.34;5129771;27;19938;-70
2021/08/29 07:36:13;;;;;;;;;;;;;;;19.50;51.05;101482.28;5093482;28;19932;-66
2021/08/29 07:38:42;;;;;;;;;;;;;;;19.21;52.21;101490.03;5131311;27;20470;-71
2021/08/29 07:41:10;;;;;;;;;;;;;;;19.05;51.74;101484.63;5113155;27;19928;-71
2021/08/29 07:43:38;;;;;;;;;;;;;;;19.01;52.87;101486.56;5131705;27;19932;-73
2021/08/29 07:46:10;;;;;;;;;;;;;;;19.13;55.86;101482.41;5096665;28;19935;-69
2021/08/29 07:48:38;;;;;;;;;;;;;;;19.05;56.28;101487.28;5099421;27;19963;-71
2021/08/29 07:51:08;;;;;;;;;;;;;;;19.00;57.51;101490.22;5102825;28;19943;-74
2021/08/29 07:53:56;;;;;;;;;;;;;;;19.20;55.15;101489.19;5103478;28;19935;-65
2021/08/29 07:56:42;;;;;;;;;;;;;;;19.01;54.64;101489.25;5105230;28;19988;-65
2021/08/29 07:59:11;;;;;;;;;;;;;;;18.94;54.21;101490.53;5096404;28;19928;-66
2021/08/29 08:01:40;;;;;;;;;;;;;;;18.89;52.77;101492.56;5095805;28;19935;-64
2021/08/29 08:04:27;;;;;;;;;;;;;;;18.97;54.32;101498.41;5100136;27;20437;-65
2021/08/29 08:07:14;;;;;;;;;;;;;;;18.90;53.85;101513.94;5105297;28;20011;-65
2021/08/29 08:10:01;;;;;;;;;;;;;;;18.84;54.71;101508.84;5104573;28;19934;-65
2021/08/29 08:12:47;;;;;;;;;;;;;;;18.82;58.30;101508.06;5099192;28;20057;-64
2021/08/29 08:15:16;;;;;;;;;;;;;;;18.87;55.45;101500.66;5090756;28;19932;-65
2021/08/29 08:17:46;;;;;;;;;;;;;;;18.95;55.20;101505.69;5097130;28;20294;-64
2021/08/29 08:20:15;;;;;;;;;;;;;;;19.18;53.17;101500.94;5129555;27;19959;-66
2021/08/29 08:22:56;;;;;;;;;;;;;;;19.15;52.70;101510.00;5100178;28;20030;-64
2021/08/29 08:25:47;;;;;;;;;;;;;;;19.16;52.93;101511.75;5085857;28;19932;-66
2021/08/29 08:28:34;;;;;;;;;;;;;;;19.17;51.93;101510.78;5093509;28;20193;-65
2021/08/29 08:31:22;;;;;;;;;;;;;;;19.23;53.86;101515.84;5102140;28;19946;-67
2021/08/29 08:34:10;;;;;;;;;;;;;;;19.27;53.42;101523.75;5094523;28;20013;-68
2021/08/29 08:37:08;;;;;;;;;;;;;;;19.35;53.02;101521.53;5081318;28;19928;-69
2021/08/29 08:39:54;;;;;;;;;;;;;;;19.22;51.78;101524.81;5102155;28;19938;-67
2021/08/29 08:42:29;;;;;;;;;;;;;;;19.12;51.21;101518.22;5100643;28;19962;-69
2021/08/29 08:45:16;;;;;;;;;;;;;;;19.15;51.00;101518.06;5101728;28;19957;-68
2021/08/29 08:48:03;;;;;;;;;;;;;;;19.18;50.08;101523.25;5097893;27;19938;-67
2021/08/29 08:51:02;;;;;;;;;;;;;;;19.12;49.95;101515.53;5037581;28;19925;-65
2021/08/29 08:53:51;;;;;;;;;;;;;;;19.06;50.09;101514.03;5099512;28;19950;-68
2021/08/29 08:56:39;;;;;;;;;;;;;;;19.25;52.28;101513.06;5094979;28;20187;-69
2021/08/29 08:59:37;;;;;;;;;;;;;;;19.20;51.93;101515.13;5083714;28;19932;-70
2021/08/29 09:02:24;;;;;;;;;;;;;;;19.16;51.10;101517.13;5107570;27;19939;-71
2021/08/29 09:05:11;;;;;;;;;;;;;;;19.33;53.78;101507.31;5105167;28;19930;-66
2021/08/29 09:07:43;;;;;;;;;;;;;;;19.46;53.89;101502.19;5094304;28;20308;-69
2021/08/29 09:10:11;;;;;;;;;;;;;;;19.56;54.27;101511.47;5112540;27;20016;-70
2021/08/29 09:12:54;;;;;;;;;;;;;;;19.48;52.85;101501.16;5104270;28;19981;-72
2021/08/29 09:15:22;;;;;;;;;;;;;;;19.39;54.45;101501.63;5104290;27;20480;-72
2021/08/29 09:17:51;;;;;;;;;;;;;;;19.43;53.68;101505.03;5097635;28;19930;-69
2021/08/29 09:20:21;;;;;;;;;;;;;;;19.34;52.37;101501.00;5101828;28;19931;-69
2021/08/29 09:22:56;;;;;;;;;;;;;;;19.39;52.43;101501.63;5133373;27;20097;-70
2021/08/29 09:25:47;;;;;;;;;;;;;;;19.44;52.04;101504.94;5071905;28;20972;-71
2021/08/29 09:28:35;;;;;;;;;;;;;;;19.45;51.67;101504.00;5102616;28;19931;-71
2021/08/29 09:31:08;;;;;;;;;;;;;;;19.50;55.79;101507.31;5098344;28;20143;-68
2021/08/29 09:33:38;;;;;;;;;;;;;;;19.54;55.05;101508.00;5098698;28;19958;-68
2021/08/29 09:36:26;;;;;;;;;;;;;;;19.36;53.49;101508.03;5097462;28;20079;-70
2021/08/29 09:39:28;;;;;;;;;;;;;;;19.44;52.80;101509.47;5083423;28;20058;-68
2021/08/29 09:42:16;;;;;;;;;;;;;;;19.48;52.50;101508.34;5102360;28;19928;-71
2021/08/29 09:44:56;;;;;;;;;;;;;;;19.51;52.81;101513.53;5097800;28;19955;-65
2021/08/29 09:47:34;;;;;;;;;;;;;;;19.50;52.13;101507.31;5096765;28;19934;-65
2021/08/29 09:50:21;;;;;;;;;;;;;;;19.52;51.44;101512.59;5091902;28;19934;-66
2021/08/29 09:53:17;;;;;;;;;;;;;;;19.56;51.78;101516.84;5091118;28;20038;-66
2021/08/29 09:56:23;;;;;;;;;;;;;;;19.46;53.33;101504.84;5117932;28;19924;-65
2021/08/29 09:59:44;;;;;;;;;;;;;;;19.47;55.85;101506.59;5056563;28;20037;-66
2021/08/29 10:02:23;;;;;;;;;;;;;;;19.59;55.36;101503.25;5100499;28;19928;-67
2021/08/29 10:05:10;;;;;;;;;;;;;;;19.60;53.76;101513.03;5103499;28;19938;-68
2021/08/29 10:07:55;;;;;;;;;;;;;;;20.11;52.20;101521.06;5122726;27;20458;-72
2021/08/29 10:10:25;;;;;;;;;;;;;;;20.15;51.78;101511.88;5095413;28;19931;-71
2021/08/29 10:12:57;;;;;;;;;;;;;;;19.92;51.91;101506.91;5118826;28;19946;-72
2021/08/29 10:15:26;;;;;;;;;;;;;;;19.95;51.36;101514.78;5114222;27;19959;-72
2021/08/29 10:18:15;;;;;;;;;;;;;;;19.73;51.67;101508.75;5095018;28;19939;-72
2021/08/29 10:21:04;;;;;;;;;;;;;;;19.60;51.99;101512.19;5080297;28;20380;-69
2021/08/29 10:23:39;;;;;;;;;;;;;;;19.67;55.07;101502.84;5107939;28;19924;-68
2021/08/29 10:26:08;;;;;;;;;;;;;;;19.78;56.15;101518.38;5102414;28;19962;-67
2021/08/29 10:29:08;;;;;;;;;;;;;;;19.76;55.16;101506.84;5087637;28;19956;-67
2021/08/29 10:32:01;;;;;;;;;;;;;;;19.64;53.08;101511.94;5058696;28;19936;-68
2021/08/29 10:34:38;;;;;;;;;;;;;;;19.83;54.26;101513.66;5092505;28;22122;-67
2021/08/29 10:37:06;;;;;;;;;;;;;;;19.77;52.25;101501.41;5102739;28;19929;-66
2021/08/29 10:40:00;;;;;;;;;;;;;;;19.72;52.41;101509.72;5076486;28;19927;-68
2021/08/29 10:42:45;;;;;;;;;;;;;;;19.71;51.80;101509.78;5099633;28;19975;-67
2021/08/29 10:45:38;;;;;;;;;;;;;;;19.75;51.75;101497.91;5080100;28;19931;-67
2021/08/29 10:48:29;;;;;;;;;;;;;;;19.70;53.68;101506.25;5093180;27;20650;-66
2021/08/29 10:51:01;;;;;;;;;;;;;;;19.79;54.19;101507.56;5131863;27;19938;-66
2021/08/29 10:53:30;;;;;;;;;;;;;;;19.92;54.41;101509.59;5097574;28;19979;-66
2021/08/29 10:56:19;;;;;;;;;;;;;;;19.84;54.30;101513.59;5100587;28;19946;-68
2021/08/29 10:59:20;;;;;;;;;;;;;;;19.81;52.40;101508.38;5101355;28;19932;-66
2021/08/29 11:01:50;;;;;;;;;;;;;;;19.66;52.05;101506.47;5102233;28;19923;-65
2021/08/29 11:04:47;;;;;;;;;;;;;;;19.70;52.32;101511.59;5101686;28;19946;-69
2021/08/29 11:07:37;;;;;;;;;;;;;;;19.60;52.48;101506.81;5105221;28;19951;-66
2021/08/29 11:10:06;;;;;;;;;;;;;;;19.73;54.17;101510.56;5106855;28;19932;-64
2021/08/29 11:12:34;;;;;;;;;;;;;;;19.93;54.09;101516.72;5109594;28;19927;-65
2021/08/29 11:15:08;;;;;;;;;;;;;;;19.96;52.92;101508.47;5115679;27;19943;-62
2021/08/29 11:17:40;;;;;;;;;;;;;;;19.62;54.17;101513.84;5099270;28;20272;-67
2021/08/29 11:20:12;;;;;;;;;;;;;;;19.68;57.22;101510.81;5105279;28;20364;-68
2021/08/29 11:22:49;;;;;;;;;;;;;;;19.59;58.14;101505.94;5110297;28;19931;-69
2021/08/29 11:25:35;;;;;;;;;;;;;;;19.62;58.65;101511.16;5106024;28;19938;-68
2021/08/29 11:28:28;;;;;;;;;;;;;;;19.59;54.72;101503.25;5082949;28;19935;-67
2021/08/29 11:31:10;;;;;;;;;;;;;;;19.49;54.13;101515.41;5096761;28;19931;-65
2021/08/29 11:34:05;;;;;;;;;;;;;;;19.29;54.31;101514.69;5103334;28;19931;-68
2021/08/29 11:36:34;;;;;;;;;;;;;;;19.30;53.98;101508.34;5101734;28;20027;-69
2021/08/29 11:39:22;;;;;;;;;;;;;;;19.15;53.79;101512.69;5108204;28;20223;-67
2021/08/29 11:42:06;;;;;;;;;;;;;;;19.11;53.74;101515.59;5105573;28;19945;-68
2021/08/29 11:44:35;;;;;;;;;;;;;;;19.47;58.30;101520.88;5096084;28;19938;-66
2021/08/29 11:47:03;;;;;;;;;;;;;;;19.62;59.24;101516.53;5093220;28;19935;-72
2021/08/29 11:49:57;;;;;;;;;;;;;;;19.47;57.87;101517.34;5098133;28;20435;-66
2021/08/29 11:52:27;;;;;;;;;;;;;;;19.51;54.48;101524.28;5134558;27;19953;-66
2021/08/29 11:55:07;;;;;;;;;;;;;;;19.43;54.48;101526.50;5102141;27;19978;-66
2021/08/29 11:57:48;;;;;;;;;;;;;;;19.28;54.64;101525.47;5125867;27;19935;-65
2021/08/29 12:00:17;;;;;;;;;;;;;;;19.14;53.91;101519.00;5095392;28;19928;-66
2021/08/29 12:02:46;;;;;;;;;;;;;;;19.04;53.52;101523.97;5104593;28;19928;-76
2021/08/29 12:05:21;;;;;;;;;;;;;;;19.01;53.53;101518.75;5099118;28;20010;-71
2021/08/29 12:07:57;;;;;;;;;;;;;;;19.20;56.44;101528.53;5099297;28;19931;-69
2021/08/29 12:10:46;;;;;;;;;;;;;;;19.92;58.32;101515.81;5099280;28;20440;-66
2021/08/29 12:13:34;;;;;;;;;;;;;;;19.78;54.11;101519.25;5070727;28;19967;-67
2021/08/29 12:16:22;;;;;;;;;;;;;;;19.57;53.75;101514.06;5095930;28;19939;-68
2021/08/29 12:18:56;;;;;;;;;;;;;;;19.32;52.82;101510.94;5092254;28;19939;-67
2021/08/29 12:21:49;;;;;;;;;;;;;;;19.11;53.27;101512.91;5100230;27;19938;-66
2021/08/29 12:24:47;;;;;;;;;;;;;;;18.99;54.10;101507.25;5094078;28;19931;-67
2021/08/29 12:27:17;;;;;;;;;;;;;;;19.03;53.78;101518.69;5095169;28;19969;-64
2021/08/29 12:29:46;;;;;;;;;;;;;;;18.96;53.44;101507.38;5127772;27;20356;-69
2021/08/29 12:32:16;;;;;;;;;;;;;;;19.47;59.21;101506.59;5097721;28;19957;-73
2021/08/29 12:34:50;;;;;;;;;;;;;;;19.77;59.35;101509.47;5100039;27;20829;-70
2021/08/29 12:37:20;;;;;;;;;;;;;;;19.72;59.01;101507.03;5100096;28;19931;-73
2021/08/29 12:39:58;;;;;;;;;;;;;;;19.72;60.24;101504.34;5090629;28;20017;-72
2021/08/29 12:42:33;;;;;;;;;;;;;;;19.79;61.09;101514.72;5091836;28;19931;-73
2021/08/29 12:45:08;;;;;;;;;;;;;;;19.59;57.82;101514.00;5090952;28;20480;-68
2021/08/29 12:47:37;;;;;;;;;;;;;;;19.45;58.71;101514.75;5097447;28;19975;-68
2021/08/29 12:50:06;;;;;;;;;;;;;;;19.67;58.29;101513.59;5092392;28;19931;-69
2021/08/29 12:52:40;;;;;;;;;;;;;;;19.64;55.57;101511.06;5099266;28;19966;-67
2021/08/29 12:55:10;;;;;;;;;;;;;;;19.82;59.99;101507.44;5088975;28;20120;-71
2021/08/29 12:57:38;;;;;;;;;;;;;;;19.69;57.42;101511.69;5095472;28;19993;-69
2021/08/29 13:00:07;;;;;;;;;;;;;;;19.57;58.82;101510.53;5098472;27;19923;-71
2021/08/29 13:02:38;;;;;;;;;;;;;;;19.49;56.54;101518.09;5095555;28;20406;-75
2021/08/29 13:05:07;;;;;;;;;;;;;;;19.58;59.21;101518.50;5118872;27;19947;-68
2021/08/29 13:07:48;;;;;;;;;;;;;;;19.69;61.61;101515.22;5093333;28;19932;-70
2021/08/29 13:10:17;;;;;;;;;;;;;;;19.66;59.26;101517.19;5090290;28;19924;-72
2021/08/29 13:12:45;;;;;;;;;;;;;;;19.68;59.04;101518.00;5090593;28;19932;-73
2021/08/29 13:15:21;;;;;;;;;;;;;;;19.32;56.59;101516.31;5093496;28;19975;-75
2021/08/29 13:17:50;;;;;;;;;;;;;;;19.31;58.85;101520.81;5087488;28;20018;-75